createdAt,value
2023-03-17T00:01:50.988Z,1.30
2023-03-17T00:04:19.044Z,1.50
2023-03-17T00:06:45.672Z,1.08
2023-03-17T00:09:17.134Z,0.80
2023-03-17T00:11:44.109Z,0.93
2023-03-17T00:14:11.129Z,1.27
2023-03-17T00:16:38.898Z,1.08
2023-03-17T00:19:05.457Z,1.33
2023-03-17T00:21:32.922Z,0.95
2023-03-17T00:23:59.805Z,1.20
2023-03-17T00:26:26.815Z,1.45
2023-03-17T00:28:54.460Z,1.70
2023-03-17T00:31:22.285Z,1.17
2023-03-17T00:33:50.547Z,1.85
2023-03-17T00:36:18.671Z,1.65
2023-03-17T00:38:46.136Z,1.38
2023-03-17T00:41:13.253Z,1.20
2023-03-17T00:43:40.377Z,1.10
2023-03-17T00:46:14.858Z,1.20
2023-03-17T00:48:41.782Z,1.10
2023-03-17T00:51:08.144Z,1.08
2023-03-17T00:53:35.027Z,1.17
2023-03-17T00:56:01.953Z,1.20
2023-03-17T00:58:30.076Z,1.25
2023-03-17T01:00:56.588Z,1.58
2023-03-17T01:03:23.203Z,1.10
2023-03-17T01:05:50.087Z,1.27
2023-03-17T01:08:16.962Z,1.20
2023-03-17T01:10:43.524Z,1.42
2023-03-17T01:13:13.224Z,1.00
2023-03-17T01:15:41.188Z,1.50
2023-03-17T01:18:10.294Z,1.42
2023-03-17T01:20:36.744Z,1.52
2023-03-17T01:23:04.138Z,1.60
2023-03-17T01:25:31.143Z,1.42
2023-03-17T01:27:59.233Z,1.23
2023-03-17T01:30:33.455Z,1.58
2023-03-17T01:33:00.103Z,1.10
2023-03-17T01:35:29.364Z,1.90
2023-03-17T01:37:57.351Z,1.27
2023-03-17T01:40:25.181Z,1.50
2023-03-17T01:42:54.245Z,1.58
2023-03-17T01:45:39.214Z,1.45
2023-03-17T01:48:05.807Z,1.60
2023-03-17T01:50:32.187Z,1.60
2023-03-17T01:52:59.246Z,2.10
2023-03-17T01:55:25.840Z,1.58
2023-03-17T01:57:56.504Z,1.75
2023-03-17T02:00:24.247Z,1.70
2023-03-17T02:02:52.103Z,1.38
2023-03-17T02:05:20.782Z,1.35
2023-03-17T02:07:47.677Z,1.63
2023-03-17T02:10:16.220Z,1.30
2023-03-17T02:12:43.157Z,1.58
2023-03-17T02:15:10.872Z,1.73
2023-03-17T02:17:38.234Z,1.48
2023-03-17T02:20:31.274Z,1.67
2023-03-17T02:22:58.853Z,1.80
2023-03-17T02:25:26.244Z,1.63
2023-03-17T02:27:55.688Z,2.08
2023-03-17T02:30:23.261Z,1.40
2023-03-17T02:32:50.162Z,1.98
2023-03-17T02:35:17.233Z,1.58
2023-03-17T02:37:43.834Z,1.63
2023-03-17T02:40:11.363Z,1.73
2023-03-17T02:42:39.434Z,1.42
2023-03-17T02:45:06.535Z,1.60
2023-03-17T02:47:32.964Z,2.00
2023-03-17T02:49:59.378Z,1.52
2023-03-17T02:52:26.305Z,1.73
2023-03-17T02:54:52.824Z,1.40
2023-03-17T02:57:19.308Z,2.20
2023-03-17T02:59:45.704Z,1.80
2023-03-17T03:02:12.334Z,2.08
2023-03-17T03:04:38.856Z,1.90
2023-03-17T03:07:05.630Z,1.73
2023-03-17T03:09:32.054Z,1.42
2023-03-17T03:11:58.470Z,1.90
2023-03-17T03:14:24.951Z,2.05
2023-03-17T03:16:52.263Z,2.03
2023-03-17T03:19:18.675Z,1.52
2023-03-17T03:21:45.014Z,1.52
2023-03-17T03:24:11.890Z,1.83
2023-03-17T03:26:38.398Z,1.75
2023-03-17T03:29:04.875Z,2.03
2023-03-17T03:31:31.629Z,2.03
2023-03-17T03:33:58.136Z,1.85
2023-03-17T03:36:25.481Z,1.88
2023-03-17T03:38:51.830Z,1.73
2023-03-17T03:41:18.336Z,1.80
2023-03-17T03:43:44.921Z,2.13
2023-03-17T03:46:15.596Z,2.00
2023-03-17T03:48:42.227Z,1.90
2023-03-17T03:51:08.667Z,1.92
2023-03-17T03:53:35.493Z,2.20
2023-03-17T03:56:02.073Z,2.50
2023-03-17T03:58:28.530Z,3.03
2023-03-17T04:00:55.016Z,2.20
2023-03-17T04:03:21.567Z,2.40
2023-03-17T04:05:48.011Z,2.20
2023-03-17T04:08:14.423Z,2.22
2023-03-17T04:10:41.090Z,1.90
2023-03-17T04:13:08.651Z,1.77
2023-03-17T04:15:35.094Z,2.30
2023-03-17T04:18:01.605Z,2.58
2023-03-17T04:20:28.277Z,2.22
2023-03-17T04:22:54.985Z,2.15
2023-03-17T04:25:21.706Z,2.10
2023-03-17T04:27:48.163Z,2.20
2023-03-17T04:30:14.795Z,2.67
2023-03-17T04:32:41.765Z,2.28
2023-03-17T04:35:10.971Z,1.98
2023-03-17T04:37:38.900Z,2.28
2023-03-17T04:40:08.435Z,2.47
2023-03-17T04:45:01.117Z,2.33
2023-03-17T04:47:27.554Z,2.47
2023-03-17T04:49:54.020Z,2.38
2023-03-17T04:52:20.430Z,2.22
2023-03-17T04:54:46.879Z,2.33
2023-03-17T04:57:13.215Z,2.20
2023-03-17T04:59:39.630Z,2.17
2023-03-17T05:02:06.616Z,2.65
2023-03-17T05:04:33.309Z,2.22
2023-03-17T05:07:00.038Z,2.50
2023-03-17T05:09:28.439Z,2.40
2023-03-17T05:11:54.936Z,1.95
2023-03-17T05:14:21.378Z,2.30
2023-03-17T05:16:49.653Z,2.90
2023-03-17T05:19:16.493Z,2.33
2023-03-17T05:21:43.024Z,2.70
2023-03-17T05:24:09.590Z,2.40
2023-03-17T05:26:36.149Z,2.67
2023-03-17T05:29:02.617Z,2.30
2023-03-17T05:31:29.829Z,3.13
2023-03-17T05:33:56.555Z,2.58
2023-03-17T05:36:22.942Z,2.53
2023-03-17T05:38:49.346Z,2.45
2023-03-17T05:41:15.838Z,3.08
2023-03-17T05:43:42.819Z,3.90
2023-03-17T05:46:09.496Z,3.05
2023-03-17T05:48:36.361Z,2.83
2023-03-17T05:51:02.862Z,2.92
2023-03-17T05:53:29.668Z,3.00
2023-03-17T05:55:56.270Z,2.45
2023-03-17T05:58:22.753Z,3.03
2023-03-17T06:00:49.160Z,2.58
2023-03-17T06:03:15.770Z,3.08
2023-03-17T06:05:42.315Z,3.10
2023-03-17T06:08:08.922Z,2.75
2023-03-17T06:10:35.648Z,2.90
2023-03-17T06:13:03.987Z,2.67
2023-03-17T06:15:31.306Z,2.85
2023-03-17T06:17:59.233Z,2.95
2023-03-17T06:20:25.855Z,3.00
2023-03-17T06:23:03.761Z,3.25
2023-03-17T06:25:32.052Z,3.30
2023-03-17T06:27:58.737Z,3.03
2023-03-17T06:30:25.287Z,3.33
2023-03-17T06:32:51.739Z,3.20
2023-03-17T06:35:18.206Z,3.15
2023-03-17T06:37:44.684Z,3.47
2023-03-17T06:40:11.408Z,3.47
2023-03-17T06:42:37.875Z,3.50
2023-03-17T06:45:04.531Z,3.80
2023-03-17T06:47:31.380Z,3.17
2023-03-17T06:49:58.322Z,3.60
2023-03-17T06:52:24.693Z,3.40
2023-03-17T06:54:51.530Z,3.45
2023-03-17T06:57:18.151Z,3.70
2023-03-17T06:59:45.627Z,4.40
2023-03-17T07:02:12.795Z,3.35
2023-03-17T07:04:39.551Z,4.05
2023-03-17T07:07:06.146Z,4.00
2023-03-17T07:09:34.372Z,4.30
2023-03-17T07:12:05.190Z,3.35
2023-03-17T07:14:35.633Z,3.78
2023-03-17T07:17:05.439Z,3.88
2023-03-17T07:19:32.871Z,3.10
2023-03-17T07:21:59.436Z,3.88
2023-03-17T07:24:26.631Z,4.03
2023-03-17T07:26:52.993Z,3.53
2023-03-17T07:29:19.644Z,4.35
2023-03-17T07:31:46.188Z,5.57
2023-03-17T07:34:12.846Z,4.20
2023-03-17T07:36:39.400Z,3.80
2023-03-17T07:39:06.567Z,4.50
2023-03-17T07:41:32.936Z,4.47
2023-03-17T07:43:59.349Z,3.88
2023-03-17T07:46:25.983Z,3.90
2023-03-17T07:48:53.342Z,3.88
2023-03-17T07:51:26.078Z,3.97
2023-03-17T07:53:53.090Z,3.83
2023-03-17T07:56:19.554Z,3.97
2023-03-17T07:58:45.940Z,4.25
2023-03-17T08:01:12.322Z,4.18
2023-03-17T08:03:41.295Z,3.78
2023-03-17T08:06:08.788Z,4.30
2023-03-17T08:08:35.655Z,4.55
2023-03-17T08:11:06.163Z,4.30
2023-03-17T08:13:32.774Z,4.13
2023-03-17T08:15:59.405Z,4.00
2023-03-17T08:18:25.926Z,4.47
2023-03-17T08:20:52.494Z,4.13
2023-03-17T08:23:19.250Z,3.78
2023-03-17T08:25:46.687Z,4.10
2023-03-17T08:28:14.242Z,4.03
2023-03-17T08:30:42.507Z,3.42
2023-03-17T08:33:09.265Z,3.75
2023-03-17T08:35:36.025Z,4.43
2023-03-17T08:38:02.621Z,4.65
2023-03-17T08:40:29.671Z,4.22
2023-03-17T08:42:56.614Z,3.95
2023-03-17T08:45:23.171Z,4.40
2023-03-17T08:47:49.696Z,3.80
2023-03-17T08:50:18.408Z,4.30
2023-03-17T08:52:45.708Z,4.10
2023-03-17T08:55:12.754Z,4.50
2023-03-17T08:57:39.289Z,3.72
2023-03-17T09:00:11.165Z,4.28
2023-03-17T09:02:38.227Z,4.05
2023-03-17T09:05:05.882Z,5.45
2023-03-17T09:07:33.131Z,4.97
2023-03-17T09:10:00.256Z,4.45
2023-03-17T09:12:27.126Z,4.30
2023-03-17T09:14:54.726Z,4.93
2023-03-17T09:17:21.960Z,4.78
2023-03-17T09:19:48.615Z,4.28
2023-03-17T09:22:16.246Z,4.40
2023-03-17T09:24:42.669Z,4.47
2023-03-17T09:27:09.158Z,5.05
2023-03-17T09:29:35.628Z,4.53
2023-03-17T09:32:02.293Z,4.35
2023-03-17T09:34:28.745Z,4.95
2023-03-17T09:36:55.516Z,4.28
2023-03-17T09:39:23.194Z,4.15
2023-03-17T09:41:52.725Z,4.38
2023-03-17T09:44:28.808Z,4.72
2023-03-17T09:47:31.157Z,4.22
2023-03-17T09:49:59.705Z,4.40
2023-03-17T09:52:28.986Z,4.73
2023-03-17T09:57:26.976Z,4.18
2023-03-17T10:00:05.500Z,4.35
2023-03-17T10:02:33.037Z,4.57
2023-03-17T10:05:20.760Z,4.50
2023-03-17T10:07:56.970Z,5.18
2023-03-17T10:10:35.597Z,4.90
2023-03-17T10:13:09.529Z,4.65
2023-03-17T10:15:41.154Z,5.07
2023-03-17T10:18:13.238Z,4.80
2023-03-17T10:20:51.861Z,5.13
2023-03-17T10:23:20.962Z,5.07
2023-03-17T10:25:48.328Z,4.93
2023-03-17T10:28:29.929Z,4.68
2023-03-17T10:31:11.346Z,5.38
2023-03-17T10:33:37.928Z,5.10
2023-03-17T10:36:11.111Z,4.90
2023-03-17T10:38:37.627Z,5.50
2023-03-17T10:41:09.916Z,5.32
2023-03-17T10:43:45.860Z,4.75
2023-03-17T10:46:17.959Z,5.40
2023-03-17T10:48:50.225Z,5.30
2023-03-17T10:51:20.479Z,5.18
2023-03-17T10:53:46.914Z,5.30
2023-03-17T10:56:24.543Z,5.00
2023-03-17T10:58:51.979Z,5.18
2023-03-17T11:01:23.140Z,4.93
2023-03-17T11:03:50.064Z,5.50
2023-03-17T11:06:19.167Z,4.97
2023-03-17T11:08:50.820Z,5.68
2023-03-17T11:11:28.083Z,5.47
2023-03-17T11:14:04.038Z,5.90
2023-03-17T11:16:32.210Z,5.85
2023-03-17T11:18:59.889Z,5.30
2023-03-17T11:21:34.646Z,6.07
2023-03-17T11:24:04.659Z,5.68
2023-03-17T11:26:45.627Z,5.40
2023-03-17T11:29:20.796Z,5.55
2023-03-17T11:31:58.307Z,5.97
2023-03-17T11:34:27.854Z,6.18
2023-03-17T11:37:10.205Z,5.88
2023-03-17T11:39:43.231Z,5.43
2023-03-17T11:42:09.680Z,5.75
2023-03-17T11:44:37.240Z,5.47
2023-03-17T11:47:14.230Z,5.70
2023-03-17T11:49:41.174Z,5.95
2023-03-17T11:52:10.997Z,5.32
2023-03-17T11:54:58.780Z,5.72
2023-03-17T11:57:32.268Z,5.22
2023-03-17T12:00:00.977Z,5.22
2023-03-17T12:02:39.493Z,5.57
2023-03-17T12:05:26.196Z,5.75
2023-03-17T12:07:55.394Z,6.03
2023-03-17T12:10:40.734Z,5.65
2023-03-17T12:13:15.053Z,5.47
2023-03-17T12:15:44.637Z,5.85
2023-03-17T12:18:33.061Z,5.70
2023-03-17T12:21:09.820Z,5.17
2023-03-17T12:23:36.622Z,6.00
2023-03-17T12:26:11.185Z,5.43
2023-03-17T12:28:58.572Z,5.50
2023-03-17T12:31:39.325Z,5.72
2023-03-17T12:34:06.538Z,5.18
2023-03-17T12:36:35.010Z,5.38
2023-03-17T12:39:05.582Z,5.57
2023-03-17T12:41:42.982Z,5.03
2023-03-17T12:44:15.811Z,5.55
2023-03-17T12:46:52.608Z,5.78
2023-03-17T12:49:19.011Z,5.45
2023-03-17T12:51:54.693Z,5.32
2023-03-17T12:54:24.634Z,5.55
2023-03-17T12:56:51.121Z,5.57
2023-03-17T12:59:19.520Z,5.28
2023-03-17T13:01:53.383Z,5.43
2023-03-17T13:04:27.901Z,5.63
2023-03-17T13:07:10.671Z,5.45
2023-03-17T13:09:47.561Z,5.82
2023-03-17T13:12:32.727Z,5.00
2023-03-17T13:14:59.401Z,5.53
2023-03-17T13:17:28.918Z,6.13
2023-03-17T13:19:55.427Z,5.50
2023-03-17T13:22:21.807Z,6.05
2023-03-17T13:24:50.210Z,6.28
2023-03-17T13:27:25.577Z,5.40
2023-03-17T13:29:52.977Z,5.65
2023-03-17T13:32:25.325Z,5.68
2023-03-17T13:34:53.953Z,5.43
2023-03-17T13:37:31.440Z,5.35
2023-03-17T13:40:01.035Z,5.65
2023-03-17T13:42:45.939Z,5.82
2023-03-17T13:45:31.137Z,5.35
2023-03-17T13:48:18.964Z,5.57
2023-03-17T13:50:46.997Z,5.20
2023-03-17T13:53:13.792Z,5.72
2023-03-17T13:55:41.404Z,5.13
2023-03-17T13:58:18.256Z,5.00
2023-03-17T14:00:46.828Z,5.20
2023-03-17T14:03:16.457Z,5.22
2023-03-17T14:05:46.656Z,5.97
2023-03-17T14:08:18.479Z,5.53
2023-03-17T14:10:52.460Z,5.60
2023-03-17T14:13:21.701Z,5.47
2023-03-17T14:16:02.377Z,5.32
2023-03-17T14:18:36.272Z,5.70
2023-03-17T14:21:08.918Z,5.57
2023-03-17T14:23:37.010Z,4.80
2023-03-17T14:26:07.756Z,5.55
2023-03-17T14:28:35.000Z,5.13
2023-03-17T14:31:02.788Z,5.63
2023-03-17T14:33:39.787Z,5.15
2023-03-17T14:36:07.765Z,5.13
2023-03-17T14:38:35.865Z,5.65
2023-03-17T14:41:14.676Z,5.20
2023-03-17T14:43:42.701Z,5.07
2023-03-17T14:46:18.555Z,5.57
2023-03-17T14:48:47.387Z,5.82
2023-03-17T14:51:22.830Z,5.28
2023-03-17T14:53:51.049Z,6.05
2023-03-17T14:56:22.542Z,5.40
2023-03-17T14:58:51.055Z,4.85
2023-03-17T15:01:20.105Z,5.17
2023-03-17T15:03:54.767Z,5.78
2023-03-17T15:06:23.159Z,5.03
2023-03-17T15:08:50.800Z,5.63
2023-03-17T15:11:22.355Z,5.50
2023-03-17T15:13:50.607Z,5.35
2023-03-17T15:16:22.196Z,5.05
2023-03-17T15:18:51.063Z,5.25
2023-03-17T15:21:27.375Z,5.35
2023-03-17T15:23:53.980Z,5.15
2023-03-17T15:26:21.861Z,5.13
2023-03-17T15:28:48.325Z,5.35
2023-03-17T15:31:14.827Z,4.72
2023-03-17T15:33:42.062Z,5.85
2023-03-17T15:36:16.593Z,5.25
2023-03-17T15:38:48.457Z,6.40
2023-03-17T15:41:14.899Z,5.20
2023-03-17T15:43:41.333Z,4.90
2023-03-17T15:46:10.695Z,5.05
2023-03-17T15:51:05.219Z,4.93
2023-03-17T15:53:32.318Z,5.72
2023-03-17T15:55:59.192Z,5.55
2023-03-17T15:58:26.118Z,5.47
2023-03-17T16:00:57.381Z,5.15
2023-03-17T16:03:34.003Z,5.82
2023-03-17T16:06:01.715Z,4.82
2023-03-17T16:08:28.948Z,5.35
2023-03-17T16:10:55.536Z,5.57
2023-03-17T16:13:22.509Z,5.70
2023-03-17T16:15:59.974Z,5.25
2023-03-17T16:18:31.675Z,5.47
2023-03-17T16:20:58.310Z,5.65
2023-03-17T16:23:27.214Z,4.95
2023-03-17T16:25:59.351Z,5.05
2023-03-17T16:28:31.872Z,5.80
2023-03-17T16:30:59.492Z,4.85
2023-03-17T16:33:27.943Z,5.20
2023-03-17T16:35:55.845Z,5.05
2023-03-17T16:38:24.054Z,5.05
2023-03-17T16:40:51.849Z,4.75
2023-03-17T16:43:25.267Z,5.50
2023-03-17T16:45:53.800Z,5.20
2023-03-17T16:48:20.358Z,4.50
2023-03-17T16:50:46.835Z,4.70
2023-03-17T16:53:13.293Z,5.20
2023-03-17T16:55:40.400Z,4.70
2023-03-17T16:58:27.150Z,5.45
2023-03-17T17:01:17.017Z,4.97
2023-03-17T17:03:44.066Z,4.80
2023-03-17T17:06:11.334Z,4.93
2023-03-17T17:08:37.780Z,5.28
2023-03-17T17:11:04.345Z,4.70
2023-03-17T17:13:30.899Z,4.53
2023-03-17T17:15:57.489Z,4.68
2023-03-17T17:18:26.967Z,4.80
2023-03-17T17:23:24.885Z,4.85
2023-03-17T17:25:51.655Z,5.05
2023-03-17T17:28:19.662Z,5.50
2023-03-17T17:30:48.053Z,5.25
2023-03-17T17:33:16.202Z,4.97
2023-03-17T17:35:43.178Z,4.78
2023-03-17T17:38:23.736Z,4.90
2023-03-17T17:40:50.380Z,4.70
2023-03-17T17:43:18.245Z,4.82
2023-03-17T17:45:48.612Z,5.13
2023-03-17T17:48:16.382Z,4.72
2023-03-17T17:50:43.338Z,4.85
2023-03-17T17:53:12.345Z,5.13
2023-03-17T17:55:39.866Z,4.45
2023-03-17T17:58:06.472Z,4.95
2023-03-17T18:00:33.534Z,4.65
2023-03-17T18:03:00.326Z,5.00
2023-03-17T18:05:27.006Z,4.72
2023-03-17T18:07:53.410Z,5.40
2023-03-17T18:10:25.715Z,5.10
2023-03-17T18:12:53.508Z,4.53
2023-03-17T18:15:20.498Z,4.80
2023-03-17T18:17:46.952Z,5.57
2023-03-17T18:20:14.712Z,4.25
2023-03-17T18:22:41.159Z,4.40
2023-03-17T18:25:09.850Z,4.68
2023-03-17T18:27:37.506Z,5.93
2023-03-17T18:30:05.624Z,5.78
2023-03-17T18:32:33.523Z,4.97
2023-03-17T18:35:02.850Z,4.72
2023-03-17T18:37:30.912Z,4.60
2023-03-17T18:40:12.517Z,4.35
2023-03-17T18:42:40.286Z,4.75
2023-03-17T18:45:08.460Z,4.82
2023-03-17T18:47:36.581Z,4.90
2023-03-17T18:50:03.566Z,4.57
2023-03-17T18:52:31.023Z,4.70
2023-03-17T18:54:57.569Z,5.63
2023-03-17T18:57:24.029Z,7.00
2023-03-17T18:59:50.380Z,5.03
2023-03-17T19:02:16.896Z,4.97
2023-03-17T19:04:47.037Z,4.95
2023-03-17T19:07:17.102Z,4.95
2023-03-17T19:09:43.915Z,4.80
2023-03-17T19:12:10.800Z,4.55
2023-03-17T19:14:38.580Z,4.50
2023-03-17T19:17:05.580Z,4.40
2023-03-17T19:19:33.349Z,5.03
2023-03-17T19:22:00.072Z,4.88
2023-03-17T19:24:27.377Z,4.35
2023-03-17T19:26:53.994Z,4.03
2023-03-17T19:29:20.489Z,5.03
2023-03-17T19:31:48.543Z,4.70
2023-03-17T19:34:15.494Z,4.93
2023-03-17T19:36:43.111Z,4.80
2023-03-17T19:39:10.950Z,5.05
2023-03-17T19:41:37.496Z,5.55
2023-03-17T19:44:06.733Z,4.82
2023-03-17T19:46:33.626Z,4.47
2023-03-17T19:49:00.160Z,5.38
2023-03-17T19:51:27.306Z,4.20
2023-03-17T19:53:54.110Z,4.68
2023-03-17T19:56:20.912Z,4.50
2023-03-17T19:58:47.317Z,4.55
2023-03-17T20:01:13.762Z,4.72
2023-03-17T20:03:42.622Z,4.50
2023-03-17T20:06:09.540Z,4.30
2023-03-17T20:08:36.440Z,5.07
2023-03-17T20:11:05.581Z,4.28
2023-03-17T20:13:32.723Z,5.05
2023-03-17T20:15:59.218Z,4.68
2023-03-17T20:18:25.697Z,4.22
2023-03-17T20:20:53.233Z,4.28
2023-03-17T20:23:19.815Z,4.05
2023-03-17T20:25:46.713Z,5.13
2023-03-17T20:28:13.286Z,4.82
2023-03-17T20:30:39.852Z,4.13
2023-03-17T20:33:07.929Z,4.25
2023-03-17T20:35:34.914Z,4.75
2023-03-17T20:38:02.165Z,4.93
2023-03-17T20:40:28.745Z,4.45
2023-03-17T20:42:55.315Z,4.18
2023-03-17T20:45:22.104Z,4.35
2023-03-17T20:47:49.222Z,4.75
2023-03-17T20:50:16.449Z,4.35
2023-03-17T20:52:43.289Z,4.65
2023-03-17T20:55:13.944Z,4.72
2023-03-17T20:57:41.294Z,4.55
2023-03-17T21:00:10.503Z,4.30
2023-03-17T21:02:37.170Z,4.65
2023-03-17T21:05:03.761Z,4.65
2023-03-17T21:07:30.421Z,4.65
2023-03-17T21:09:56.835Z,4.43
2023-03-17T21:12:23.570Z,4.40
2023-03-17T21:14:50.719Z,4.78
2023-03-17T21:17:18.096Z,3.95
2023-03-17T21:19:45.123Z,4.65
2023-03-17T21:22:12.466Z,4.25
2023-03-17T21:24:39.992Z,4.50
2023-03-17T21:27:07.826Z,4.30
2023-03-17T21:29:34.546Z,4.68
2023-03-17T21:32:01.704Z,6.07
2023-03-17T21:34:29.053Z,5.07
2023-03-17T21:36:55.791Z,5.53
2023-03-17T21:39:22.190Z,5.10
2023-03-17T21:41:51.423Z,5.65
2023-03-17T21:44:18.666Z,5.28
2023-03-17T21:46:46.382Z,4.82
2023-03-17T21:49:13.413Z,4.15
2023-03-17T21:51:40.024Z,4.88
2023-03-17T21:54:06.571Z,4.43
2023-03-17T21:56:33.445Z,4.35
2023-03-17T21:58:59.935Z,4.90
2023-03-17T22:01:26.542Z,6.63
2023-03-17T22:03:53.085Z,4.65
2023-03-17T22:06:20.295Z,4.63
2023-03-17T22:08:48.100Z,4.25
2023-03-17T22:11:15.882Z,4.28
2023-03-17T22:13:42.812Z,4.38
2023-03-17T22:16:10.092Z,4.85
2023-03-17T22:18:36.840Z,4.70
2023-03-17T22:21:04.165Z,3.97
2023-03-17T22:23:30.846Z,4.88
2023-03-17T22:25:57.435Z,4.40
2023-03-17T22:28:24.484Z,3.95
2023-03-17T22:30:51.510Z,5.07
2023-03-17T22:33:18.188Z,4.32
2023-03-17T22:35:44.646Z,4.47
2023-03-17T22:38:13.090Z,4.53
2023-03-17T22:40:39.537Z,4.50
2023-03-17T22:43:06.287Z,4.40
2023-03-17T22:45:32.737Z,3.80
2023-03-17T22:47:59.141Z,3.97
2023-03-17T22:50:25.605Z,4.22
2023-03-17T22:52:52.270Z,4.03
2023-03-17T22:55:18.693Z,4.00
2023-03-17T22:57:45.587Z,4.15
2023-03-17T23:00:17.094Z,4.70
2023-03-17T23:02:44.593Z,4.00
2023-03-17T23:05:11.519Z,4.28
2023-03-17T23:07:49.507Z,3.65
2023-03-17T23:10:17.678Z,4.30
2023-03-17T23:12:44.861Z,4.63
2023-03-17T23:15:11.524Z,4.38
2023-03-17T23:17:38.473Z,3.35
2023-03-17T23:20:05.637Z,4.05
2023-03-17T23:22:32.198Z,3.88
2023-03-17T23:25:00.344Z,3.80
2023-03-17T23:27:27.224Z,3.75
2023-03-17T23:29:54.138Z,3.67
2023-03-17T23:32:20.548Z,3.47
2023-03-17T23:34:47.049Z,4.03
2023-03-17T23:37:13.508Z,3.55
2023-03-17T23:39:40.341Z,3.53
2023-03-17T23:42:07.107Z,3.00
2023-03-17T23:44:33.824Z,3.20
2023-03-17T23:47:00.269Z,4.05
2023-03-17T23:49:27.396Z,3.85
2023-03-17T23:51:54.448Z,3.75
2023-03-17T23:54:20.890Z,4.05
2023-03-17T23:56:48.001Z,4.00
2023-03-17T23:59:14.398Z,3.95
